Thief River Falls, Minnesota
Current Conditions -  °F | °C
As of 5:35 PM on Saturday 20 Dec 2014 (Local Time) from KTVF Reporting Station
Overcast Overcast  
Wind Chill: 18°   Ceiling: 400
Heat Index: 28°   Visibility: 3mi
Dew Point: 28°   Wind: 13mph
Humidity: 100%   Direction: 170°S
Pressure: 29.95"   Gusts: NA
Location:  48.12°N, 96.18°W
Report Text: KTVF 202335Z AUTO 17011KT 3SM OVC004 M02/M02 A2995 RMK AO1
Loading
Personal Weather Stations






























Interactive Weather Map New forecast layout! Learn more

10-Day Weather Forecast

Advertisements
Track Severe Weather on mobile